Time;durP1;ratioP1;P1;durP2;ratioP2;P2;SDS_P1;SDS_P2;PMS_P1;PMS_P2;Temp;Humidity;BMP_temperature;BMP_pressure;BME280_temperature;BME280_humidity;BME280_pressure;Samples;Min_cycle;Max_cycle;Signal;HPM_P1;HPM_P2
2023/08/16 00:00:25;;;;;;;4.03;2.53;;;18.20;99.90;;;;;;5016133;28;20030;-74
2023/08/16 00:02:51;;;;;;;5.05;2.35;;;18.20;99.90;;;;;;5015039;28;20025;-74
2023/08/16 00:05:16;;;;;;;5.00;2.67;;;18.30;99.90;;;;;;5016217;28;20396;-74
2023/08/16 00:07:42;;;;;;;3.05;2.20;;;18.30;99.90;;;;;;5016329;28;20026;-74
2023/08/16 00:10:11;;;;;;;3.00;2.50;;;18.40;99.90;;;;;;5016727;28;20034;-74
2023/08/16 00:12:38;;;;;;;3.38;2.42;;;18.50;99.90;;;;;;5015993;28;20072;-74
2023/08/16 00:15:06;;;;;;;3.38;2.65;;;18.50;99.90;;;;;;5015971;28;20018;-74
2023/08/16 00:17:32;;;;;;;3.28;2.40;;;18.50;99.90;;;;;;5015756;28;20026;-75
2023/08/16 00:19:58;;;;;;;4.35;2.50;;;18.60;99.90;;;;;;5015610;28;20033;-74
2023/08/16 00:22:24;;;;;;;4.45;2.35;;;18.60;99.90;;;;;;5015922;28;20037;-74
2023/08/16 00:24:49;;;;;;;3.03;2.13;;;18.60;99.90;;;;;;5015687;28;20038;-74
2023/08/16 00:27:15;;;;;;;3.25;2.53;;;18.60;99.90;;;;;;5015410;28;20073;-74
2023/08/16 00:29:40;;;;;;;6.07;2.65;;;18.60;99.90;;;;;;5014480;28;20030;-74
2023/08/16 00:32:07;;;;;;;3.30;2.53;;;18.60;99.90;;;;;;5014182;28;20037;-74
2023/08/16 00:34:33;;;;;;;4.88;2.60;;;18.60;99.90;;;;;;5007848;28;20030;-74
2023/08/16 00:36:59;;;;;;;4.30;2.92;;;18.60;99.90;;;;;;4996013;28;20026;-74
2023/08/16 00:39:24;;;;;;;4.80;2.40;;;18.60;99.90;;;;;;4995923;28;20032;-74
2023/08/16 00:41:50;;;;;;;3.08;2.50;;;18.50;99.90;;;;;;4995903;28;20041;-74
2023/08/16 00:44:16;;;;;;;3.97;2.53;;;18.40;99.90;;;;;;4994694;28;20034;-74
2023/08/16 00:46:41;;;;;;;5.00;2.70;;;18.30;99.90;;;;;;4994482;28;20037;-74
2023/08/16 00:49:07;;;;;;;4.32;2.40;;;18.30;99.90;;;;;;4994504;28;20113;-74
2023/08/16 00:51:34;;;;;;;3.97;2.70;;;18.30;99.90;;;;;;4995837;28;20444;-74
2023/08/16 00:53:59;;;;;;;5.00;2.80;;;18.30;99.90;;;;;;4995950;28;20050;-74
2023/08/16 00:56:26;;;;;;;4.57;3.22;;;18.40;99.90;;;;;;4996002;28;20504;-74
2023/08/16 00:58:52;;;;;;;4.50;2.85;;;18.30;99.90;;;;;;4997140;28;20022;-74
2023/08/16 01:01:17;;;;;;;3.47;2.70;;;18.30;99.90;;;;;;4995850;28;20114;-74
2023/08/16 01:03:43;;;;;;;3.92;2.95;;;18.30;99.90;;;;;;4995750;28;20054;-74
2023/08/16 01:06:09;;;;;;;5.30;3.80;;;18.30;99.90;;;;;;4995478;28;20026;-74
2023/08/16 01:08:34;;;;;;;5.00;3.33;;;18.30;99.90;;;;;;4995523;28;20030;-74
2023/08/16 01:11:33;;;;;;;4.47;3.08;;;18.20;99.90;;;;;;4995238;28;20036;-74
2023/08/16 01:14:05;;;;;;;4.60;2.60;;;18.20;99.90;;;;;;4994781;28;20574;-74
2023/08/16 01:16:34;;;;;;;4.03;2.95;;;18.10;99.90;;;;;;4995213;28;20050;-74
2023/08/16 01:19:00;;;;;;;4.78;2.80;;;18.00;99.90;;;;;;4995102;28;20057;-74
2023/08/16 01:21:28;;;;;;;4.10;2.50;;;18.00;99.90;;;;;;4995126;28;20047;-74
2023/08/16 01:24:23;;;;;;;3.83;2.75;;;18.00;99.90;;;;;;4995059;28;20054;-74
2023/08/16 01:26:50;;;;;;;3.75;2.70;;;18.00;99.90;;;;;;4995098;28;20054;-74
2023/08/16 01:29:17;;;;;;;5.20;3.45;;;17.90;99.90;;;;;;4995059;28;20026;-74
2023/08/16 01:31:44;;;;;;;5.95;3.95;;;17.80;99.90;;;;;;4994860;28;20030;-74
2023/08/16 01:34:10;;;;;;;5.50;3.80;;;17.70;99.90;;;;;;4994883;28;20109;-74
2023/08/16 01:36:35;;;;;;;4.18;2.97;;;17.70;99.90;;;;;;4994753;28;20106;-74
2023/08/16 01:39:01;;;;;;;4.10;2.83;;;17.60;99.90;;;;;;4994771;28;20034;-74
2023/08/16 01:41:44;;;;;;;6.15;3.08;;;17.60;99.90;;;;;;4994877;28;20053;-74
2023/08/16 01:44:12;;;;;;;4.75;2.60;;;17.60;99.90;;;;;;4995035;28;20026;-74
2023/08/16 01:46:40;;;;;;;4.45;2.58;;;17.70;99.90;;;;;;4994736;28;20110;-74
2023/08/16 01:49:07;;;;;;;3.50;2.70;;;17.70;99.90;;;;;;4994844;28;20026;-74
2023/08/16 01:51:33;;;;;;;4.00;2.95;;;17.60;99.90;;;;;;4994559;28;20027;-74
2023/08/16 01:53:59;;;;;;;4.32;2.72;;;17.60;99.90;;;;;;4994820;28;20034;-74
2023/08/16 01:56:25;;;;;;;3.22;2.55;;;17.50;99.90;;;;;;4994490;28;20045;-75
2023/08/16 01:58:50;;;;;;;3.55;2.70;;;17.50;99.90;;;;;;4994486;28;20038;-74
2023/08/16 02:01:16;;;;;;;3.45;2.70;;;17.50;99.90;;;;;;4992932;28;20041;-75
2023/08/16 02:03:42;;;;;;;3.63;2.65;;;17.50;99.90;;;;;;4994713;28;20026;-74
2023/08/16 02:06:08;;;;;;;3.58;2.42;;;17.50;99.90;;;;;;4994316;28;20030;-74
2023/08/16 02:08:34;;;;;;;5.18;2.88;;;17.60;99.90;;;;;;4994508;28;20032;-74
2023/08/16 02:10:59;;;;;;;4.68;3.28;;;17.50;99.90;;;;;;4994190;28;20056;-74
2023/08/16 02:13:25;;;;;;;3.45;2.80;;;17.40;99.90;;;;;;4994206;28;20033;-74
2023/08/16 02:16:01;;;;;;;4.97;2.70;;;17.40;99.90;;;;;;4994171;28;20030;-74
2023/08/16 02:18:31;;;;;;;5.72;2.92;;;17.30;99.90;;;;;;4994007;28;20026;-74
2023/08/16 02:20:57;;;;;;;3.60;2.88;;;17.30;99.90;;;;;;4992864;28;20026;-74
2023/08/16 02:23:23;;;;;;;4.35;2.60;;;17.30;99.90;;;;;;4994082;28;20117;-74
2023/08/16 02:25:49;;;;;;;3.97;2.78;;;17.20;99.90;;;;;;4994091;28;20058;-74
2023/08/16 02:28:15;;;;;;;4.65;3.05;;;17.10;99.90;;;;;;4994087;28;20026;-74
2023/08/16 02:30:40;;;;;;;3.60;3.03;;;17.00;99.90;;;;;;4994012;28;20038;-74
2023/08/16 02:33:06;;;;;;;3.45;2.80;;;16.90;99.90;;;;;;4994095;28;20030;-74
2023/08/16 02:35:32;;;;;;;4.47;2.90;;;16.90;99.90;;;;;;4994035;28;20046;-74
2023/08/16 02:37:58;;;;;;;3.40;2.50;;;16.90;99.90;;;;;;4992734;28;20030;-74
2023/08/16 02:40:23;;;;;;;3.42;2.63;;;16.90;99.90;;;;;;4993841;28;20019;-74
2023/08/16 02:42:50;;;;;;;3.08;2.28;;;16.90;99.90;;;;;;4993946;28;20133;-74
2023/08/16 02:45:17;;;;;;;4.68;2.95;;;16.90;99.90;;;;;;4994155;28;20081;-74
2023/08/16 02:47:42;;;;;;;3.83;2.53;;;16.80;99.90;;;;;;4994011;28;20018;-75
2023/08/16 02:50:08;;;;;;;4.20;3.10;;;16.70;99.90;;;;;;4992539;28;20489;-75
2023/08/16 02:52:34;;;;;;;4.63;2.65;;;16.60;99.90;;;;;;4992488;28;20037;-74
2023/08/16 02:55:00;;;;;;;3.30;2.55;;;16.60;99.90;;;;;;4993736;28;20446;-74
2023/08/16 02:57:26;;;;;;;4.63;3.20;;;16.50;99.90;;;;;;4993970;28;20110;-74
2023/08/16 02:59:51;;;;;;;5.13;2.88;;;16.40;99.90;;;;;;4993665;28;20034;-74
2023/08/16 03:02:18;;;;;;;3.72;2.88;;;16.40;99.90;;;;;;4992516;28;20061;-74
2023/08/16 03:04:43;;;;;;;3.78;2.83;;;16.40;99.90;;;;;;4993746;28;20033;-74
2023/08/16 03:07:10;;;;;;;5.68;3.78;;;16.30;99.90;;;;;;4993824;28;20030;-74
2023/08/16 03:09:36;;;;;;;5.57;4.03;;;16.30;99.90;;;;;;4993659;28;20034;-75
2023/08/16 03:12:03;;;;;;;4.63;3.72;;;16.30;99.90;;;;;;4994373;28;20022;-75
2023/08/16 03:14:29;;;;;;;4.35;3.20;;;16.30;99.90;;;;;;4997630;28;20031;-75
2023/08/16 03:16:58;;;;;;;6.15;3.28;;;16.20;99.90;;;;;;4997346;28;20040;-75
2023/08/16 03:19:25;;;;;;;5.82;3.25;;;16.10;99.90;;;;;;4996167;28;20046;-75
2023/08/16 03:21:51;;;;;;;6.35;3.10;;;16.00;99.90;;;;;;4979896;28;20457;-75
2023/08/16 03:24:17;;;;;;;4.70;2.80;;;16.00;99.90;;;;;;4996793;28;20031;-75
2023/08/16 03:26:42;;;;;;;3.13;2.70;;;16.00;99.90;;;;;;4979790;28;20037;-75
2023/08/16 03:29:08;;;;;;;3.35;2.60;;;16.00;99.90;;;;;;4997210;28;20093;-75
2023/08/16 03:31:34;;;;;;;3.20;2.53;;;16.00;99.90;;;;;;4996421;28;20463;-75
2023/08/16 03:33:59;;;;;;;3.20;2.25;;;16.00;99.90;;;;;;4995807;28;20077;-75
2023/08/16 03:36:25;;;;;;;3.60;2.20;;;16.10;99.90;;;;;;4997152;28;20031;-75
2023/08/16 03:38:51;;;;;;;4.80;2.58;;;16.20;99.90;;;;;;4995510;28;20030;-75
2023/08/16 03:41:16;;;;;;;2.70;2.30;;;16.20;99.90;;;;;;4996969;28;20042;-75
2023/08/16 03:43:42;;;;;;;2.75;1.90;;;16.30;99.90;;;;;;4996882;28;20085;-75
2023/08/16 03:46:08;;;;;;;3.47;2.30;;;16.30;99.90;;;;;;4997226;28;20080;-75
2023/08/16 03:48:34;;;;;;;4.50;2.28;;;16.30;99.90;;;;;;4995577;28;20026;-75
2023/08/16 03:51:00;;;;;;;2.90;2.15;;;16.30;99.90;;;;;;4995839;28;20121;-75
2023/08/16 03:53:25;;;;;;;5.03;2.38;;;16.40;99.90;;;;;;4995633;28;20132;-75
2023/08/16 03:55:58;;;;;;;4.75;2.30;;;16.40;99.90;;;;;;4995378;28;20033;-75
2023/08/16 03:58:24;;;;;;;2.58;1.70;;;16.40;99.90;;;;;;4995247;28;20033;-75
2023/08/16 04:00:53;;;;;;;3.33;2.00;;;16.40;99.90;;;;;;4994663;28;20102;-75
2023/08/16 04:03:20;;;;;;;5.38;2.22;;;16.30;99.90;;;;;;4995103;28;20030;-75
2023/08/16 04:05:46;;;;;;;2.83;1.90;;;16.30;99.90;;;;;;4996204;28;20026;-75
2023/08/16 04:08:12;;;;;;;2.78;1.85;;;16.30;99.90;;;;;;4996481;28;20464;-75
2023/08/16 04:10:38;;;;;;;2.58;1.92;;;16.30;99.90;;;;;;4995183;28;20062;-75
2023/08/16 04:13:04;;;;;;;2.70;1.60;;;16.30;99.90;;;;;;5002723;28;20109;-75
2023/08/16 04:15:30;;;;;;;4.63;1.80;;;16.30;99.90;;;;;;5016138;28;20064;-75
2023/08/16 04:17:56;;;;;;;3.80;1.98;;;16.30;99.90;;;;;;5015396;28;20038;-75
2023/08/16 04:20:22;;;;;;;4.90;2.00;;;16.30;99.90;;;;;;5014840;28;20032;-75
2023/08/16 04:22:49;;;;;;;4.97;2.40;;;16.30;99.90;;;;;;5015023;28;20027;-75
2023/08/16 04:25:15;;;;;;;3.63;2.65;;;16.30;99.90;;;;;;5017941;28;20033;-75
2023/08/16 04:27:41;;;;;;;5.22;3.50;;;16.20;99.90;;;;;;5015974;28;20033;-75
2023/08/16 04:30:08;;;;;;;5.07;3.15;;;16.10;99.90;;;;;;5017645;28;20511;-75
2023/08/16 04:32:33;;;;;;;4.53;3.20;;;16.00;99.90;;;;;;5015177;28;20080;-74
2023/08/16 04:34:59;;;;;;;4.10;2.75;;;15.90;99.90;;;;;;5014652;28;20684;-75
2023/08/16 04:37:25;;;;;;;3.85;3.22;;;15.80;99.90;;;;;;5014540;28;20145;-75
2023/08/16 04:39:50;;;;;;;5.05;2.72;;;15.70;99.90;;;;;;5014739;28;20037;-75
2023/08/16 04:42:16;;;;;;;3.63;3.13;;;15.70;99.90;;;;;;5013889;28;20026;-76
2023/08/16 04:44:42;;;;;;;4.80;3.35;;;15.80;99.90;;;;;;5013904;28;20029;-75
2023/08/16 04:47:08;;;;;;;5.50;2.95;;;15.80;99.90;;;;;;5014348;28;20038;-75
2023/08/16 04:49:34;;;;;;;4.97;2.55;;;15.80;99.90;;;;;;5014166;28;20028;-75
2023/08/16 04:52:00;;;;;;;3.88;2.33;;;15.80;99.90;;;;;;5015753;28;20080;-75
2023/08/16 04:54:25;;;;;;;3.83;2.60;;;15.90;99.90;;;;;;5015342;28;20037;-75
2023/08/16 04:56:51;;;;;;;3.40;2.60;;;15.90;99.90;;;;;;5015363;28;20476;-75
2023/08/16 04:59:17;;;;;;;3.47;2.22;;;15.90;99.90;;;;;;5014983;28;20026;-75
2023/08/16 05:01:43;;;;;;;2.75;1.98;;;15.90;99.90;;;;;;5013549;28;20033;-74
2023/08/16 05:04:09;;;;;;;3.38;2.20;;;16.00;99.90;;;;;;5014293;28;20034;-74
2023/08/16 05:06:36;;;;;;;2.78;2.03;;;16.00;99.90;;;;;;5015679;28;20032;-75
2023/08/16 05:09:02;;;;;;;4.18;2.20;;;16.00;99.90;;;;;;5016272;28;20377;-74
2023/08/16 05:11:29;;;;;;;4.72;2.05;;;16.00;99.90;;;;;;5013575;28;20030;-74
2023/08/16 05:13:54;;;;;;;4.80;2.50;;;16.10;99.90;;;;;;5015121;28;20109;-74
2023/08/16 05:16:20;;;;;;;3.83;1.90;;;16.10;99.90;;;;;;5014663;28;20109;-74
2023/08/16 05:18:45;;;;;;;2.17;1.70;;;16.10;99.90;;;;;;5014824;28;20037;-75
2023/08/16 05:21:11;;;;;;;2.38;1.85;;;16.10;99.90;;;;;;5013453;28;20477;-75
2023/08/16 05:23:37;;;;;;;2.65;1.92;;;16.00;99.90;;;;;;5015205;28;20072;-74
2023/08/16 05:26:02;;;;;;;3.03;2.20;;;16.00;99.90;;;;;;5013324;28;20407;-75
2023/08/16 05:28:28;;;;;;;2.95;1.90;;;16.00;99.90;;;;;;5014584;28;20076;-75
2023/08/16 05:30:54;;;;;;;3.28;2.45;;;16.00;99.90;;;;;;5014439;28;20061;-75
2023/08/16 05:33:19;;;;;;;4.72;2.70;;;16.10;99.90;;;;;;5014869;28;20022;-74
2023/08/16 05:35:45;;;;;;;4.60;2.60;;;16.10;99.90;;;;;;5013712;28;20030;-74
2023/08/16 05:38:11;;;;;;;3.05;2.30;;;16.00;99.90;;;;;;5012838;28;20029;-74
2023/08/16 05:40:36;;;;;;;3.15;2.33;;;16.00;99.90;;;;;;5014253;28;20420;-74
2023/08/16 05:43:02;;;;;;;4.40;2.90;;;16.00;99.90;;;;;;5014362;28;20489;-74
2023/08/16 05:45:29;;;;;;;3.47;2.58;;;16.00;99.90;;;;;;5014327;28;20449;-75
2023/08/16 05:47:55;;;;;;;5.10;2.63;;;15.90;99.90;;;;;;5013105;28;20030;-75
2023/08/16 05:50:22;;;;;;;3.97;2.70;;;15.90;99.90;;;;;;5012865;28;20129;-74
2023/08/16 05:52:47;;;;;;;3.60;2.60;;;15.90;99.90;;;;;;5014178;28;20025;-74
2023/08/16 05:55:13;;;;;;;3.45;2.60;;;15.80;99.90;;;;;;5014182;28;20396;-74
2023/08/16 05:57:39;;;;;;;3.45;2.30;;;15.70;99.90;;;;;;5014350;28;20029;-75
2023/08/16 06:00:05;;;;;;;3.30;2.13;;;15.70;99.90;;;;;;5013559;28;20038;-74
2023/08/16 06:02:31;;;;;;;4.40;2.17;;;15.70;99.90;;;;;;5012381;28;20504;-74
2023/08/16 06:04:58;;;;;;;3.78;2.45;;;15.70;99.90;;;;;;5012723;28;20057;-74
2023/08/16 06:07:26;;;;;;;3.00;2.35;;;15.70;99.90;;;;;;5014823;28;20030;-74
2023/08/16 06:09:52;;;;;;;3.17;2.60;;;15.70;99.90;;;;;;5013888;28;20396;-75
2023/08/16 06:12:17;;;;;;;3.25;2.13;;;15.80;99.90;;;;;;5013714;28;20026;-74
2023/08/16 06:14:43;;;;;;;4.25;2.42;;;15.90;99.90;;;;;;5012727;28;20033;-74
2023/08/16 06:17:09;;;;;;;2.92;2.08;;;15.90;99.90;;;;;;5011494;28;20033;-74
2023/08/16 06:19:35;;;;;;;2.75;2.20;;;16.00;99.90;;;;;;5013631;28;20113;-74
2023/08/16 06:22:00;;;;;;;3.17;2.47;;;16.10;99.90;;;;;;5014110;28;20026;-74
2023/08/16 06:24:26;;;;;;;4.53;2.72;;;16.10;99.90;;;;;;5013796;28;20560;-74
2023/08/16 06:26:52;;;;;;;3.30;2.42;;;16.20;99.90;;;;;;5013863;28;20057;-74
2023/08/16 06:29:17;;;;;;;3.22;2.60;;;16.20;99.90;;;;;;5013987;28;20549;-74
2023/08/16 06:31:43;;;;;;;2.88;2.17;;;16.30;99.90;;;;;;5013925;28;20036;-74
2023/08/16 06:34:09;;;;;;;3.22;2.40;;;16.40;99.90;;;;;;5013790;28;20113;-74
2023/08/16 06:36:35;;;;;;;4.50;2.70;;;16.50;99.90;;;;;;5013834;28;20057;-74
2023/08/16 06:39:00;;;;;;;4.07;2.65;;;16.50;99.90;;;;;;5013634;28;20026;-74
2023/08/16 06:41:26;;;;;;;3.92;3.10;;;16.70;99.90;;;;;;5012268;28;20034;-75
2023/08/16 06:43:52;;;;;;;3.97;2.88;;;16.70;99.90;;;;;;5013823;28;20033;-74
2023/08/16 06:46:17;;;;;;;3.90;3.33;;;16.90;99.90;;;;;;5015088;28;20488;-74
2023/08/16 06:48:43;;;;;;;6.88;3.47;;;17.00;99.90;;;;;;5017644;28;20041;-75
2023/08/16 06:51:09;;;;;;;4.70;3.58;;;17.10;99.90;;;;;;5016781;28;20070;-74
2023/08/16 06:53:38;;;;;;;6.53;4.07;;;17.10;99.90;;;;;;5016403;28;20103;-74
2023/08/16 06:56:04;;;;;;;5.10;3.42;;;17.20;99.90;;;;;;5017710;28;20488;-75
2023/08/16 06:58:30;;;;;;;6.70;4.53;;;17.20;99.90;;;;;;5017441;28;20037;-74
2023/08/16 07:00:56;;;;;;;5.05;4.55;;;17.30;99.90;;;;;;5016349;28;20030;-74
2023/08/16 07:03:22;;;;;;;8.07;5.18;;;17.40;99.90;;;;;;5019680;28;20037;-74
2023/08/16 07:05:48;;;;;;;5.82;5.03;;;17.40;99.90;;;;;;5019030;28;20026;-74
2023/08/16 07:08:13;;;;;;;8.35;5.60;;;17.50;99.90;;;;;;5017179;28;20455;-75
2023/08/16 07:10:41;;;;;;;5.88;4.78;;;17.50;99.90;;;;;;5018843;28;20034;-74
2023/08/16 07:13:07;;;;;;;7.00;5.05;;;17.60;99.90;;;;;;5018461;28;20522;-75
2023/08/16 07:15:33;;;;;;;8.13;5.88;;;17.60;99.90;;;;;;5018098;28;20030;-75
2023/08/16 07:17:59;;;;;;;7.72;5.57;;;17.70;99.90;;;;;;5017808;28;20030;-75
2023/08/16 07:20:25;;;;;;;12.43;6.30;;;17.80;99.90;;;;;;5017530;28;20443;-75
2023/08/16 07:22:51;;;;;;;6.88;4.80;;;17.90;99.90;;;;;;5016208;28;20117;-75
2023/08/16 07:25:16;;;;;;;5.75;4.75;;;18.00;99.90;;;;;;5016991;28;20030;-74
2023/08/16 07:27:42;;;;;;;7.50;5.40;;;18.10;99.90;;;;;;5016022;28;20156;-76
2023/08/16 07:30:08;;;;;;;6.75;5.05;;;18.20;99.90;;;;;;5017167;28;20113;-74
2023/08/16 07:32:34;;;;;;;7.18;4.90;;;18.30;99.90;;;;;;5017072;28;20033;-74
2023/08/16 07:34:59;;;;;;;6.40;5.53;;;18.30;99.90;;;;;;5016910;28;20109;-75
2023/08/16 07:37:31;;;;;;;8.10;5.45;;;18.50;99.90;;;;;;5016929;28;20029;-75
2023/08/16 07:39:57;;;;;;;6.47;4.50;;;18.60;99.90;;;;;;5016915;28;20033;-75
2023/08/16 07:42:23;;;;;;;5.53;4.47;;;18.70;99.90;;;;;;5015552;28;20053;-74
2023/08/16 07:44:49;;;;;;;6.75;4.20;;;18.90;99.90;;;;;;5016947;28;20489;-74
2023/08/16 07:47:15;;;;;;;6.35;5.43;;;19.10;99.90;;;;;;5015392;28;20121;-74
2023/08/16 07:49:41;;;;;;;6.78;4.93;;;19.20;99.90;;;;;;5016374;28;20089;-74
2023/08/16 07:52:07;;;;;;;4.57;3.83;;;19.30;99.90;;;;;;5016352;28;20033;-74
2023/08/16 07:54:32;;;;;;;6.95;4.18;;;19.50;99.90;;;;;;5015497;28;20388;-74
2023/08/16 07:56:58;;;;;;;6.07;5.25;;;19.60;99.90;;;;;;5016366;28;20041;-74
2023/08/16 07:59:24;;;;;;;5.78;4.05;;;19.70;99.90;;;;;;5014414;28;20535;-74
2023/08/16 08:01:51;;;;;;;4.50;3.83;;;19.80;99.90;;;;;;5016537;28;20029;-74
2023/08/16 08:04:18;;;;;;;8.57;3.67;;;19.90;99.90;;;;;;5016733;28;20022;-74
2023/08/16 08:06:44;;;;;;;4.25;3.22;;;19.90;99.90;;;;;;5016178;28;20029;-75
2023/08/16 08:09:09;;;;;;;3.92;2.83;;;20.00;99.90;;;;;;5016058;28;20030;-75
2023/08/16 08:11:37;;;;;;;3.22;2.72;;;20.10;99.90;;;;;;5016015;28;20160;-75
2023/08/16 08:14:03;;;;;;;3.30;2.50;;;20.20;99.90;;;;;;5014810;28;20049;-75
2023/08/16 08:16:29;;;;;;;5.75;2.72;;;20.30;99.90;;;;;;5015981;28;20104;-75
2023/08/16 08:18:55;;;;;;;5.53;3.15;;;20.40;99.90;;;;;;5015739;28;20170;-75
2023/08/16 08:21:20;;;;;;;3.92;2.92;;;20.50;99.90;;;;;;5015893;28;20038;-75
2023/08/16 08:23:46;;;;;;;7.40;2.92;;;20.60;99.90;;;;;;5015954;28;20072;-75
2023/08/16 08:26:12;;;;;;;3.60;2.83;;;20.80;99.90;;;;;;5014531;28;20080;-75
2023/08/16 08:28:38;;;;;;;4.53;2.75;;;20.90;99.90;;;;;;5015834;28;20026;-75
2023/08/16 08:31:03;;;;;;;6.43;3.08;;;21.10;99.90;;;;;;5014583;28;20488;-75
2023/08/16 08:33:32;;;;;;;3.80;2.75;;;21.30;99.90;;;;;;5014900;28;20050;-75
2023/08/16 08:35:58;;;;;;;2.95;2.35;;;21.40;99.90;;;;;;5014278;28;20033;-75
2023/08/16 08:38:24;;;;;;;3.63;2.75;;;21.50;99.90;;;;;;5015827;28;20025;-75
2023/08/16 08:40:59;;;;;;;3.92;3.00;;;21.60;99.90;;;;;;5014831;28;20034;-75
2023/08/16 08:43:35;;;;;;;4.78;2.47;;;21.70;99.90;;;;;;5015523;28;20104;-75
2023/08/16 08:46:02;;;;;;;5.07;2.95;;;21.80;99.90;;;;;;5015895;28;20030;-75
2023/08/16 08:48:29;;;;;;;3.70;2.58;;;22.00;99.90;;;;;;5015303;28;20484;-75
2023/08/16 08:50:55;;;;;;;2.97;2.35;;;22.00;99.90;;;;;;5013986;28;20157;-75
2023/08/16 08:53:25;;;;;;;4.88;2.80;;;22.10;99.90;;;;;;5014017;28;20369;-75
2023/08/16 08:55:52;;;;;;;5.20;2.75;;;22.10;99.90;;;;;;5016150;28;20364;-75
2023/08/16 08:58:24;;;;;;;4.90;2.58;;;22.30;99.90;;;;;;5015263;28;20026;-75
2023/08/16 09:00:51;;;;;;;2.85;2.25;;;22.40;99.90;;;;;;5013956;28;20083;-75
2023/08/16 09:03:18;;;;;;;3.22;2.47;;;22.50;99.90;;;;;;5015358;28;20022;-75
2023/08/16 09:05:54;;;;;;;4.43;2.63;;;22.60;99.90;;;;;;5014030;28;20048;-75
2023/08/16 09:08:21;;;;;;;3.20;2.35;;;22.70;99.90;;;;;;5015413;28;20388;-75
2023/08/16 09:10:47;;;;;;;2.90;2.17;;;22.80;99.90;;;;;;5013949;28;20129;-75
2023/08/16 09:13:14;;;;;;;4.05;2.40;;;22.90;99.90;;;;;;5015378;28;20022;-75
2023/08/16 09:15:40;;;;;;;4.47;2.42;;;22.90;99.90;;;;;;5015330;28;20033;-75
2023/08/16 09:18:11;;;;;;;5.22;2.58;;;23.10;99.90;;;;;;5015153;28;20504;-75
2023/08/16 09:20:37;;;;;;;3.85;2.42;;;23.20;99.90;;;;;;5014713;28;20435;-75
2023/08/16 09:23:03;;;;;;;3.03;2.17;;;23.30;99.90;;;;;;5014777;28;20088;-75
2023/08/16 09:25:30;;;;;;;5.47;2.38;;;23.40;99.90;;;;;;5014780;28;20496;-75
2023/08/16 09:27:56;;;;;;;3.75;2.50;;;23.40;99.90;;;;;;5014623;28;20032;-75
2023/08/16 09:30:24;;;;;;;3.30;2.10;;;23.50;99.90;;;;;;5014525;28;20021;-75
2023/08/16 09:32:53;;;;;;;4.63;2.72;;;23.50;99.90;;;;;;5014494;28;20511;-75
2023/08/16 09:35:19;;;;;;;4.25;2.70;;;23.60;99.90;;;;;;5014472;28;20037;-75
2023/08/16 09:37:45;;;;;;;3.95;2.10;;;23.70;99.90;;;;;;5014716;28;20057;-75
2023/08/16 09:40:15;;;;;;;3.13;2.30;;;23.80;99.90;;;;;;5003017;28;20054;-75
2023/08/16 09:42:41;;;;;;;3.97;2.17;;;23.90;99.90;;;;;;4994756;28;20077;-74
2023/08/16 09:45:07;;;;;;;3.25;2.33;;;24.10;99.90;;;;;;4994700;28;20030;-75
2023/08/16 09:47:32;;;;;;;3.47;2.13;;;24.20;99.90;;;;;;4994219;28;20076;-75
2023/08/16 09:49:59;;;;;;;4.95;2.22;;;24.30;99.90;;;;;;4993279;28;20117;-74
2023/08/16 09:52:27;;;;;;;5.13;2.20;;;24.40;99.90;;;;;;4993259;28;20506;-74
2023/08/16 09:54:55;;;;;;;2.80;2.08;;;24.50;99.90;;;;;;4994528;28;20023;-74
2023/08/16 09:57:21;;;;;;;3.00;2.03;;;24.50;99.90;;;;;;4993250;28;20022;-74
2023/08/16 09:59:48;;;;;;;2.85;2.33;;;24.50;99.90;;;;;;4994353;28;20020;-74
2023/08/16 10:02:14;;;;;;;2.63;2.05;;;24.50;99.90;;;;;;4994502;28;20400;-75
2023/08/16 10:04:40;;;;;;;4.45;2.20;;;24.50;99.90;;;;;;4994462;28;20026;-74
2023/08/16 10:07:06;;;;;;;3.17;1.95;;;24.50;99.90;;;;;;4993162;28;20441;-74
2023/08/16 10:09:33;;;;;;;3.10;1.90;;;24.60;99.90;;;;;;4994260;28;20037;-74
2023/08/16 10:12:03;;;;;;;3.13;2.00;;;24.60;99.90;;;;;;4993041;28;20030;-74
2023/08/16 10:14:30;;;;;;;3.15;1.50;;;24.70;99.90;;;;;;4994272;28;20029;-74
2023/08/16 10:17:01;;;;;;;2.53;1.80;;;24.80;99.90;;;;;;4994201;28;20046;-74
2023/08/16 10:19:33;;;;;;;4.32;1.80;;;24.90;99.90;;;;;;4993973;28;20065;-74
2023/08/16 10:22:02;;;;;;;2.58;1.83;;;25.10;99.90;;;;;;4994941;28;20069;-74
2023/08/16 10:24:36;;;;;;;2.53;1.98;;;25.20;99.90;;;;;;4994185;28;20028;-74
2023/08/16 10:27:04;;;;;;;6.55;2.10;;;25.30;99.90;;;;;;4993064;28;20042;-74
2023/08/16 10:29:38;;;;;;;2.22;1.98;;;25.50;99.90;;;;;;4994341;28;20022;-74
2023/08/16 10:32:09;;;;;;;2.90;1.90;;;25.60;99.90;;;;;;4994089;28;20392;-74
2023/08/16 10:34:35;;;;;;;3.35;1.67;;;25.70;99.90;;;;;;4994945;28;20369;-73
2023/08/16 10:37:02;;;;;;;2.67;2.03;;;25.80;99.90;;;;;;4994220;28;20030;-73
2023/08/16 10:39:30;;;;;;;2.60;1.90;;;25.80;99.90;;;;;;4993983;28;20054;-74
2023/08/16 10:42:08;;;;;;;2.58;1.80;;;25.90;99.90;;;;;;4992775;28;20074;-74
2023/08/16 10:44:34;;;;;;;2.65;1.70;;;26.00;99.90;;;;;;4994302;28;20038;-74
2023/08/16 10:46:59;;;;;;;2.50;1.60;;;26.10;99.90;;;;;;4994396;28;20053;-73
2023/08/16 10:49:36;;;;;;;2.80;1.70;;;26.20;99.90;;;;;;4993874;28;20037;-73
2023/08/16 10:52:02;;;;;;;3.75;2.00;;;26.20;99.90;;;;;;4994226;28;20030;-74
2023/08/16 10:54:37;;;;;;;2.40;1.92;;;26.20;99.90;;;;;;4993781;28;20142;-74
2023/08/16 10:57:09;;;;;;;2.40;1.58;;;26.20;99.90;;;;;;4993938;28;20511;-73
2023/08/16 10:59:39;;;;;;;2.58;1.70;;;26.30;99.90;;;;;;4993505;28;20026;-74
2023/08/16 11:02:11;;;;;;;2.23;1.73;;;26.30;99.90;;;;;;5001375;28;20080;-74
2023/08/16 11:04:38;;;;;;;2.92;1.77;;;26.40;99.90;;;;;;5013205;28;20069;-74
2023/08/16 11:07:08;;;;;;;4.03;1.92;;;26.50;99.90;;;;;;5013327;28;20504;-74
2023/08/16 11:09:39;;;;;;;2.70;1.55;;;26.50;99.90;;;;;;5013172;28;20026;-74
2023/08/16 11:12:06;;;;;;;;;;;26.60;99.90;;;;;;5013932;28;20061;-74
2023/08/16 11:14:36;;;;;;;3.47;1.70;;;26.70;99.90;;;;;;5013340;28;20406;-74
2023/08/16 11:17:02;;;;;;;3.03;1.70;;;26.80;99.90;;;;;;5013296;28;20026;-74
2023/08/16 11:19:28;;;;;;;2.20;1.50;;;26.90;99.90;;;;;;5013165;28;20138;-74
2023/08/16 11:22:01;;;;;;;3.28;1.70;;;27.00;99.90;;;;;;5013140;28;20089;-74
2023/08/16 11:24:28;;;;;;;4.13;1.70;;;27.10;99.90;;;;;;5013176;28;20025;-74
2023/08/16 11:26:54;;;;;;;2.47;1.63;;;27.10;99.90;;;;;;5013201;28;20037;-74
2023/08/16 11:29:19;;;;;;;2.30;1.73;;;27.20;99.50;;;;;;4995415;28;20030;-74
2023/08/16 11:31:45;;;;;;;2.10;1.63;;;27.30;99.70;;;;;;5011908;28;20033;-74
2023/08/16 11:34:11;;;;;;;2.15;1.50;;;27.30;98.00;;;;;;5015485;28;20022;-74
2023/08/16 11:36:40;;;;;;;2.00;1.50;;;27.30;97.60;;;;;;5016726;28;20041;-74
2023/08/16 11:39:09;;;;;;;2.63;1.90;;;27.40;97.90;;;;;;5016637;28;20022;-74
2023/08/16 11:41:36;;;;;;;2.85;1.77;;;27.40;97.50;;;;;;5016650;28;20075;-74
2023/08/16 11:44:01;;;;;;;3.30;1.98;;;27.50;98.00;;;;;;5016644;28;20030;-74
2023/08/16 11:46:27;;;;;;;4.32;1.85;;;27.60;97.90;;;;;;5016848;28;20381;-74
2023/08/16 11:48:54;;;;;;;2.35;1.77;;;27.60;97.80;;;;;;5016445;28;20029;-74
2023/08/16 11:51:20;;;;;;;5.30;2.38;;;27.70;98.30;;;;;;5016467;28;20030;-74
2023/08/16 11:53:46;;;;;;;2.35;1.88;;;27.80;98.90;;;;;;5016433;28;20116;-74
2023/08/16 11:56:12;;;;;;;2.63;2.00;;;27.90;98.50;;;;;;5016396;28;20153;-74
2023/08/16 11:58:48;;;;;;;3.08;2.05;;;27.90;97.60;;;;;;5016301;28;20018;-74
2023/08/16 12:01:15;;;;;;;3.38;2.17;;;28.00;96.40;;;;;;5016387;28;20101;-74
2023/08/16 12:03:43;;;;;;;5.05;2.60;;;28.00;96.40;;;;;;5016246;28;20029;-74
2023/08/16 12:06:09;;;;;;;3.05;2.05;;;28.10;96.30;;;;;;5016197;28;20022;-74
2023/08/16 12:08:35;;;;;;;;;;;28.10;96.40;;;;;;5016495;28;20046;-74
2023/08/16 12:11:01;;;;;;;;;;;28.30;94.50;;;;;;5016464;28;19916;-74
2023/08/16 12:13:27;;;;;;;;;;;28.40;95.90;;;;;;5016492;28;20268;-74
2023/08/16 12:15:52;;;;;;;;;;;28.40;94.30;;;;;;5016515;28;19905;-74
2023/08/16 12:18:20;;;;;;;;;;;28.50;93.90;;;;;;5016326;28;20391;-74
2023/08/16 12:20:49;;;;;;;;;;;28.60;94.30;;;;;;5015266;28;20379;-74
2023/08/16 12:23:15;;;;;;;;;;;28.70;92.90;;;;;;5016534;28;19940;-74
2023/08/16 12:25:41;;;;;;;;;;;28.90;94.40;;;;;;5016210;28;19912;-73
2023/08/16 12:28:07;;;;;;;;;;;29.00;92.10;;;;;;5016237;28;19909;-73
2023/08/16 12:30:33;;;;;;;;;;;28.90;92.60;;;;;;5016073;28;20291;-74
2023/08/16 12:32:58;;;;;;;;;;;28.80;92.70;;;;;;5016092;28;19933;-74
2023/08/16 12:35:24;;;;;;;;;;;28.70;92.80;;;;;;5016052;28;19909;-74
2023/08/16 12:37:50;;;;;;;;;;;28.60;92.90;;;;;;5015959;28;19914;-74
2023/08/16 12:40:15;;;;;;;;;;;28.50;93.10;;;;;;5016153;28;19963;-74
2023/08/16 12:42:41;;;;;;;;;;;28.50;93.40;;;;;;5016189;28;19917;-74
2023/08/16 12:45:06;;;;;;;;;;;28.50;93.60;;;;;;5015613;28;19909;-74
2023/08/16 12:47:32;;;;;;;;;;;28.50;93.60;;;;;;5015722;28;20004;-73
2023/08/16 12:49:57;;;;;;;;;;;28.70;93.00;;;;;;5015746;28;20435;-73